This is the latest recevied weather packets stored in our database for station/object JQ2GLP-13. If no packets are shown the sender has not sent any weather packets the latest 10 day(s).
| Time | Temp. | Humidity | Pressure | Rain* | Wind** | Luminosity | Snow |
|---|---|---|---|---|---|---|---|
| 1778013431 | 16.11° C | 58% | 1017.1 hPa | 0 mm | - | - | - |
| 1778011633 | 16.11° C | 57% | 1016.9 hPa | 0 mm | - | - | - |
| 1778009832 | 15.56° C | 57% | 1017 hPa | 0 mm | - | - | - |
| 1778000833 | 15.56° C | 58% | 1016.8 hPa | 0 mm | - | - | - |
| 1777999032 | 15° C | 58% | 1017.1 hPa | 0 mm | - | - | - |
| 1777993633 | 14.44° C | 58% | 1017.7 hPa | 0 mm | - | - | - |
| 1777991833 | 14.44° C | 57% | 1017.9 hPa | 0 mm | - | - | - |
| 1777990032 | 14.44° C | 57% | 1017.9 hPa | 0 mm | - | - | - |
| 1777986433 | 14.44° C | 56% | 1018.1 hPa | 0 mm | - | - | - |
| 1777982832 | 14.44° C | 53% | 1017.9 hPa | 0 mm | - | - | - |
| 1777979234 | 15.56° C | 50% | 1017.4 hPa | 0 mm | - | - | - |
| 1777973834 | 17.78° C | 39% | 1016.7 hPa | 0 mm | - | - | - |
| 1777968433 | 18.89° C | 36% | 1016.4 hPa | 0 mm | - | - | - |
| 1777966633 | 19.44° C | 39% | 1016.2 hPa | 0 mm | - | - | - |
| 1777954035 | 20° C | 39% | 1015.4 hPa | 0 mm | - | - | - |
| 1777948635 | 20° C | 42% | 1015.1 hPa | 0 mm | - | - | - |
| 1777945031 | 20° C | 40% | 1015.1 hPa | 0 mm | - | - | - |
| 1777932433 | 16.67° C | 44% | 1013.6 hPa | 0 mm | - | - | - |
| 1777928831 | 12.78° C | 53% | 1012.3 hPa | 0 mm | - | - | - |
| 1777919832 | 11.67° C | 57% | 1008.9 hPa | 0 mm | - | - | - |
| 1777909033 | 13.33° C | 54% | 1006.5 hPa | 0 mm | - | - | - |
| 1777905433 | 13.89° C | 54% | 1006.2 hPa | 0 mm | - | - | - |
| 1777903633 | 13.89° C | 53% | 1006.1 hPa | 0 mm | - | - | - |
| 1777900032 | 14.44° C | 53% | 1005.4 hPa | 0 mm | - | - | - |
| 1777891034 | 15° C | 54% | 1002.8 hPa | 0 mm | - | - | - |
* Rain latest hour (hover to see other rain measurements)
** Current wind speed in m/s (hover to see current wind gust speed)